Terminal Aerodrome Forecast
Issued by NWS

Home | Current Version | Previous Version | Text Only | Print | Product List | Glossary On
Versions: 1 2 3 4 5 6 7 8 9 10 11 12 13 14 15 16 17 18 19
000
FTUS43 KICT 012300
TAFCNU
TAF
KCNU 012328Z 0200/0224 17006KT P6SM FEW050
     FM020300 08005KT P6SM FEW050
      TEMPO 0209/0213 3SM BR=

USA.gov is the U.S. government's official web portal to all federal, state and local government web resources and services.